createdAt,value
2023-03-06T00:03:52.287Z,100448.50
2023-03-06T00:09:13.039Z,100446.84
2023-03-06T00:14:33.755Z,100427.34
2023-03-06T00:19:54.563Z,100430.66
2023-03-06T00:25:17.755Z,100428.13
2023-03-06T00:30:38.262Z,100418.84
2023-03-06T00:37:14.695Z,100426.44
2023-03-06T00:42:35.097Z,100431.47
2023-03-06T00:47:56.299Z,100445.75
2023-03-06T00:53:18.219Z,100438.09
2023-03-06T00:58:39.204Z,100428.75
2023-03-06T01:03:59.461Z,100414.31
2023-03-06T01:09:20.507Z,100410.88
2023-03-06T01:14:41.024Z,100405.88
2023-03-06T01:20:04.384Z,100407.53
2023-03-06T01:25:25.352Z,100391.47
2023-03-06T01:30:46.029Z,100385.47
2023-03-06T01:36:08.758Z,100395.56
2023-03-06T01:41:29.469Z,100388.81
2023-03-06T01:46:50.392Z,100384.53
2023-03-06T01:52:18.248Z,100377.69
2023-03-06T01:57:44.086Z,100370.94
2023-03-06T02:03:15.598Z,100376.09
2023-03-06T02:08:36.554Z,100351.69
2023-03-06T02:13:57.232Z,100337.38
2023-03-06T02:19:52.445Z,100338.25
2023-03-06T02:25:31.310Z,100324.78
2023-03-06T02:30:54.305Z,100322.28
2023-03-06T02:36:16.574Z,100321.47
2023-03-06T02:41:41.196Z,100314.81
2023-03-06T02:47:02.169Z,100313.16
2023-03-06T02:52:22.710Z,100303.91
2023-03-06T02:57:43.368Z,100297.16
2023-03-06T03:03:04.891Z,100298.03
2023-03-06T03:08:26.239Z,100292.13
2023-03-06T03:13:51.120Z,100289.63
2023-03-06T03:19:16.464Z,100283.72
2023-03-06T03:24:37.146Z,100278.56
2023-03-06T03:29:58.883Z,100280.22
2023-03-06T03:35:21.042Z,100270.06
2023-03-06T03:40:41.404Z,100281.00
2023-03-06T03:46:02.598Z,100267.47
2023-03-06T03:51:23.224Z,100259.03
2023-03-06T03:56:47.554Z,100259.88
2023-03-06T04:02:21.682Z,100265.75
2023-03-06T04:07:50.686Z,100283.44
2023-03-06T04:13:12.365Z,100274.09
2023-03-06T04:18:36.653Z,100261.47
2023-03-06T04:23:59.306Z,100253.81
2023-03-06T04:29:19.851Z,100252.13
2023-03-06T04:34:40.497Z,100242.81
2023-03-06T04:40:01.258Z,100243.59
2023-03-06T04:45:22.159Z,100237.69
2023-03-06T04:50:42.937Z,100234.28
2023-03-06T04:56:03.924Z,100224.22
2023-03-06T05:01:24.671Z,100214.13
2023-03-06T05:06:45.248Z,100212.56
2023-03-06T05:12:06.190Z,100206.69
2023-03-06T05:17:26.690Z,100212.63
2023-03-06T05:22:47.283Z,100210.13
2023-03-06T05:28:08.851Z,100200.88
2023-03-06T05:33:32.424Z,100210.16
2023-03-06T05:38:52.995Z,100216.97
2023-03-06T05:44:13.692Z,100215.34
2023-03-06T05:49:36.115Z,100206.09
2023-03-06T05:54:56.866Z,100201.06
2023-03-06T06:00:18.676Z,100196.84
2023-03-06T06:05:39.808Z,100205.28
2023-03-06T06:11:00.654Z,100217.94
2023-03-06T06:16:21.248Z,100220.47
2023-03-06T06:21:41.642Z,100213.75
2023-03-06T06:27:03.959Z,100212.06
2023-03-06T06:32:24.636Z,100199.41
2023-03-06T06:37:44.939Z,100206.97
2023-03-06T06:43:05.753Z,100197.66
2023-03-06T06:48:26.583Z,100201.88
2023-03-06T06:53:47.447Z,100202.78
2023-03-06T06:59:16.657Z,100203.56
2023-03-06T07:04:44.305Z,100192.59
2023-03-06T07:10:15.231Z,100193.44
2023-03-06T07:15:35.938Z,100194.34
2023-03-06T07:20:57.237Z,100186.72
2023-03-06T07:26:18.591Z,100184.97
2023-03-06T07:31:39.456Z,100193.44
2023-03-06T07:37:00.130Z,100183.25
2023-03-06T07:42:20.905Z,100189.00
2023-03-06T07:47:53.921Z,100191.47
2023-03-06T07:53:14.996Z,100203.38
2023-03-06T07:59:01.545Z,100204.25
2023-03-06T08:04:22.025Z,100203.41
2023-03-06T08:09:42.431Z,100209.25
2023-03-06T08:15:11.492Z,100194.72
2023-03-06T08:20:32.429Z,100195.47
2023-03-06T08:26:07.504Z,100198.75
2023-03-06T08:31:40.613Z,100198.75
2023-03-06T08:37:01.180Z,100205.59
2023-03-06T08:42:21.844Z,100201.25
2023-03-06T08:47:42.262Z,100198.69
2023-03-06T08:53:02.658Z,100203.75
2023-03-06T08:58:23.241Z,100208.81
2023-03-06T09:03:44.620Z,100203.66
2023-03-06T09:09:05.958Z,100211.03
2023-03-06T09:14:26.349Z,100213.22
2023-03-06T09:19:47.048Z,100211.13
2023-03-06T09:25:08.217Z,100204.28
2023-03-06T09:30:28.907Z,100205.66
2023-03-06T09:35:54.929Z,100205.94
2023-03-06T09:41:42.578Z,100215.06
2023-03-06T09:47:25.161Z,100215.72
2023-03-06T09:53:08.273Z,100222.03
2023-03-06T09:58:30.931Z,100222.78
2023-03-06T10:04:04.142Z,100221.75
2023-03-06T10:09:29.989Z,100219.00
2023-03-06T10:15:24.025Z,100213.66
2023-03-06T10:20:55.597Z,100216.88
2023-03-06T10:26:22.935Z,100217.00
2023-03-06T10:31:45.334Z,100213.66
2023-03-06T10:37:18.633Z,100203.91
2023-03-06T10:42:39.389Z,100210.53
2023-03-06T10:48:11.978Z,100192.75
2023-03-06T10:53:32.861Z,100193.66
2023-03-06T10:59:09.089Z,100193.00
2023-03-06T11:04:33.013Z,100199.19
2023-03-06T11:10:21.984Z,100191.44
2023-03-06T11:15:57.054Z,100184.59
2023-03-06T11:21:25.465Z,100184.19
2023-03-06T11:26:56.616Z,100181.38
2023-03-06T11:32:24.630Z,100182.78
2023-03-06T11:37:58.330Z,100185.03
2023-03-06T11:43:35.296Z,100169.44
2023-03-06T11:49:12.071Z,100165.88
2023-03-06T11:54:33.655Z,100164.56
2023-03-06T12:00:08.323Z,100154.53
2023-03-06T12:05:52.501Z,100158.56
2023-03-06T12:11:20.312Z,100153.31
2023-03-06T12:17:06.823Z,100158.47
2023-03-06T12:22:57.987Z,100142.69
2023-03-06T12:28:46.857Z,100151.41
2023-03-06T12:34:22.474Z,100152.25
2023-03-06T12:39:48.721Z,100158.78
2023-03-06T12:45:25.060Z,100149.50
2023-03-06T12:50:46.215Z,100143.59
2023-03-06T12:56:07.296Z,100137.50
2023-03-06T13:01:34.073Z,100122.38
2023-03-06T13:07:16.545Z,100122.44
2023-03-06T13:13:01.140Z,100117.47
2023-03-06T13:18:21.881Z,100114.03
2023-03-06T13:23:52.146Z,100101.00
2023-03-06T13:29:37.971Z,100097.69
2023-03-06T13:34:58.828Z,100109.03
2023-03-06T13:40:31.825Z,100098.06
2023-03-06T13:45:52.796Z,100089.81
2023-03-06T13:51:23.288Z,100086.50
2023-03-06T13:57:13.966Z,100071.44
2023-03-06T14:03:21.358Z,100060.91
2023-03-06T14:08:42.542Z,100053.69
2023-03-06T14:14:03.681Z,100049.56
2023-03-06T14:19:24.721Z,100035.88
2023-03-06T14:24:54.473Z,100029.78
2023-03-06T14:30:18.648Z,100017.22
2023-03-06T14:35:39.254Z,100005.47
2023-03-06T14:40:59.934Z,99999.22
2023-03-06T14:46:22.416Z,99991.03
2023-03-06T14:51:46.615Z,99991.31
2023-03-06T14:57:14.522Z,99985.53
2023-03-06T15:02:36.141Z,99975.66
2023-03-06T15:08:04.099Z,99978.91
2023-03-06T15:13:28.137Z,99970.66
2023-03-06T15:19:02.438Z,99961.66
2023-03-06T15:24:35.850Z,99959.41
2023-03-06T15:30:20.741Z,99944.47
2023-03-06T15:36:02.058Z,99952.31
2023-03-06T15:41:33.186Z,99939.34
2023-03-06T15:47:06.601Z,99926.91
2023-03-06T15:52:28.966Z,99923.13
2023-03-06T15:58:02.078Z,99919.44
2023-03-06T16:03:22.808Z,99898.19
2023-03-06T16:08:43.833Z,99904.50
2023-03-06T16:14:04.664Z,99897.78
2023-03-06T16:19:27.618Z,99878.53
2023-03-06T16:24:48.350Z,99878.69
2023-03-06T16:30:18.030Z,99865.50
2023-03-06T16:35:38.809Z,99872.25
2023-03-06T16:40:59.024Z,99859.16
2023-03-06T16:46:22.280Z,99860.13
2023-03-06T16:51:42.669Z,99850.09
2023-03-06T16:57:03.182Z,99849.44
2023-03-06T17:02:23.988Z,99833.53
2023-03-06T17:07:44.381Z,99817.34
2023-03-06T17:13:07.274Z,99810.72
2023-03-06T17:18:28.933Z,99793.81
2023-03-06T17:23:50.796Z,99804.88
2023-03-06T17:29:12.027Z,99791.44
2023-03-06T17:34:32.315Z,99785.44
2023-03-06T17:39:52.964Z,99778.63
2023-03-06T17:45:13.935Z,99770.88
2023-03-06T17:50:34.354Z,99757.38
2023-03-06T17:55:55.698Z,99751.34
2023-03-06T18:01:19.658Z,99757.25
2023-03-06T18:06:40.011Z,99743.81
2023-03-06T18:12:00.682Z,99735.31
2023-03-06T18:17:21.515Z,99720.03
2023-03-06T18:22:42.210Z,99703.88
2023-03-06T18:28:02.914Z,99699.00
2023-03-06T18:33:23.790Z,99671.69
2023-03-06T18:38:45.629Z,99651.31
2023-03-06T18:44:06.258Z,99632.63
2023-03-06T18:49:27.294Z,99617.56
2023-03-06T18:54:49.887Z,99596.59
2023-03-06T19:00:10.998Z,99582.31
2023-03-06T19:05:31.538Z,99567.91
2023-03-06T19:10:52.262Z,99569.47
2023-03-06T19:16:22.596Z,99558.69
2023-03-06T19:21:43.148Z,99549.56
2023-03-06T19:27:03.917Z,99539.66
2023-03-06T19:32:25.008Z,99526.88
2023-03-06T19:37:45.382Z,99514.78
2023-03-06T19:43:05.848Z,99487.03
2023-03-06T19:48:26.394Z,99475.53
2023-03-06T19:53:46.852Z,99466.28
2023-03-06T19:59:07.499Z,99480.88
2023-03-06T20:04:32.655Z,99442.16
2023-03-06T20:09:56.134Z,99439.03
2023-03-06T20:15:18.940Z,99429.88
2023-03-06T20:20:39.960Z,99397.91
2023-03-06T20:26:06.029Z,99409.09
2023-03-06T20:31:34.455Z,99366.88
2023-03-06T20:36:57.776Z,99366.03
2023-03-06T20:42:18.486Z,99340.97
2023-03-06T20:47:39.205Z,99338.44
2023-03-06T20:52:59.770Z,99326.81
2023-03-06T20:58:26.586Z,99288.06
2023-03-06T21:03:47.510Z,99284.78
2023-03-06T21:09:26.886Z,99249.44
2023-03-06T21:15:27.851Z,99289.13
2023-03-06T21:21:28.946Z,99227.50
2023-03-06T21:26:54.304Z,99212.31
2023-03-06T21:32:15.072Z,99201.34
2023-03-06T21:37:36.202Z,99171.75
2023-03-06T21:43:07.557Z,99169.19
2023-03-06T21:48:42.573Z,99150.50
2023-03-06T21:54:05.448Z,99128.69
2023-03-06T21:59:32.313Z,99112.41
2023-03-06T22:04:59.239Z,99111.31
2023-03-06T22:10:20.124Z,99099.59
2023-03-06T22:16:00.646Z,99086.19
2023-03-06T22:21:24.841Z,99069.44
2023-03-06T22:26:51.437Z,99053.47
2023-03-06T22:32:20.705Z,99061.84
2023-03-06T22:37:50.537Z,99015.25
2023-03-06T22:43:17.530Z,99007.34
2023-03-06T22:48:45.247Z,98989.34
2023-03-06T22:54:11.238Z,98968.88
2023-03-06T22:59:38.077Z,98973.63
2023-03-06T23:05:05.891Z,98954.91
2023-03-06T23:10:29.429Z,98934.09
2023-03-06T23:16:09.643Z,98946.47
2023-03-06T23:21:49.643Z,98957.34
2023-03-06T23:27:29.422Z,98936.47
2023-03-06T23:32:49.819Z,98912.97
2023-03-06T23:38:11.427Z,98895.81
2023-03-06T23:43:32.352Z,98882.50
2023-03-06T23:48:53.121Z,98857.53
2023-03-06T23:54:13.998Z,98858.78
2023-03-06T23:59:34.876Z,98851.88
